Time;durP1;ratioP1;P1;durP2;ratioP2;P2;SDS_P1;SDS_P2;PMS_P1;PMS_P2;Temp;Humidity;BMP_temperature;BMP_pressure;BME280_temperature;BME280_humidity;BME280_pressure;Samples;Min_cycle;Max_cycle;Signal;HPM_P1;HPM_P2
2024/01/10 00:01:44;;;;;;;8.73;5.17;;;-2.40;99.90;;;;;;5092601;28;20187;-83
2024/01/10 00:04:10;;;;;;;9.30;5.40;;;-2.30;1.00;;;;;;5092402;28;20176;-84
2024/01/10 00:06:36;;;;;;;12.97;5.90;;;-2.30;1.00;;;;;;5092835;28;20640;-82
2024/01/10 00:09:02;;;;;;;9.97;5.87;;;-2.30;1.00;;;;;;5094043;28;20670;-82
2024/01/10 00:11:28;;;;;;;9.23;6.07;;;-2.40;1.00;;;;;;5093465;28;20651;-82
2024/01/10 00:13:59;;;;;;;8.77;5.33;;;-2.40;1.00;;;;;;5092711;28;20190;-84
2024/01/10 00:16:25;;;;;;;8.90;5.00;;;-2.50;1.00;;;;;;5094058;28;20203;-83
2024/01/10 00:18:51;;;;;;;8.53;6.23;;;-2.50;1.00;;;;;;5094479;28;20166;-82
2024/01/10 00:21:17;;;;;;;8.67;5.53;;;-2.50;1.00;;;;;;5093013;28;20179;-84
2024/01/10 00:23:42;;;;;;;8.53;4.63;;;-2.50;1.00;;;;;;5093118;28;20220;-82
2024/01/10 00:26:08;;;;;;;10.93;6.20;;;-2.50;1.00;;;;;;5090855;28;20214;-85
2024/01/10 00:28:34;;;;;;;10.17;6.07;;;-2.50;1.00;;;;;;5091687;28;20313;-83
2024/01/10 00:30:59;;;;;;;7.90;5.17;;;-2.50;1.00;;;;;;5092006;28;20635;-83
2024/01/10 00:33:25;;;;;;;9.03;5.60;;;-2.50;1.00;;;;;;5092417;28;20217;-84
2024/01/10 00:35:51;;;;;;;10.80;6.50;;;-2.50;1.00;;;;;;5092288;28;20195;-83
2024/01/10 00:38:16;;;;;;;11.53;5.87;;;-2.50;1.00;;;;;;5091696;28;20198;-84
2024/01/10 00:40:42;;;;;;;8.63;5.50;;;-2.50;1.00;;;;;;5091532;28;20263;-84
2024/01/10 00:43:08;;;;;;;11.83;6.20;;;-2.50;1.00;;;;;;5090298;28;20182;-83
2024/01/10 00:45:34;;;;;;;12.77;6.87;;;-2.50;1.00;;;;;;5090886;28;20309;-82
2024/01/10 00:48:00;;;;;;;9.03;5.57;;;-2.60;1.00;;;;;;5091207;28;20267;-84
2024/01/10 00:50:25;;;;;;;8.97;6.03;;;-2.60;1.00;;;;;;5091940;28;20957;-81
2024/01/10 00:52:51;;;;;;;9.37;5.80;;;-2.60;1.00;;;;;;5092038;28;20175;-83
2024/01/10 00:55:17;;;;;;;9.40;4.93;;;-2.50;1.00;;;;;;5099173;28;20199;-83
2024/01/10 00:57:42;;;;;;;9.27;5.73;;;-2.50;1.00;;;;;;5103458;28;20191;-82
2024/01/10 01:00:10;;;;;;;11.57;6.20;;;-2.50;1.00;;;;;;5095931;28;20175;-83
2024/01/10 01:02:41;;;;;;;10.33;6.17;;;-2.50;1.00;;;;;;5090990;28;20263;-84
2024/01/10 01:05:07;;;;;;;9.30;6.37;;;-2.60;1.00;;;;;;5090343;28;20186;-83
2024/01/10 01:07:34;;;;;;;9.53;6.17;;;-2.70;1.00;;;;;;5091201;28;20182;-82
2024/01/10 01:10:00;;;;;;;11.87;6.83;;;-2.70;1.00;;;;;;5091381;28;20198;-80
2024/01/10 01:12:26;;;;;;;10.23;6.67;;;-2.70;1.00;;;;;;5091385;28;20259;-81
2024/01/10 01:14:53;;;;;;;10.90;6.50;;;-2.70;1.00;;;;;;5091252;28;20255;-81
2024/01/10 01:17:18;;;;;;;11.23;6.77;;;-2.70;1.00;;;;;;5090660;28;20278;-83
2024/01/10 01:19:45;;;;;;;10.63;6.27;;;-2.70;1.00;;;;;;5090656;28;20780;-82
2024/01/10 01:22:11;;;;;;;11.37;6.97;;;-2.70;1.00;;;;;;5092259;28;20171;-85
2024/01/10 01:24:36;;;;;;;11.37;6.33;;;-2.80;1.00;;;;;;5091213;28;20244;-82
2024/01/10 01:27:03;;;;;;;10.87;6.70;;;-2.80;1.00;;;;;;5087435;28;20176;-83
2024/01/10 01:29:29;;;;;;;9.60;5.53;;;-2.70;1.00;;;;;;5087661;28;20179;-86
2024/01/10 01:31:55;;;;;;;10.47;6.00;;;-2.80;1.00;;;;;;5090458;28;20561;-82
2024/01/10 01:34:20;;;;;;;11.07;6.73;;;-2.80;1.00;;;;;;5084415;28;20260;-85
2024/01/10 01:36:46;;;;;;;11.33;5.83;;;-2.90;1.00;;;;;;5090943;28;20207;-81
2024/01/10 01:39:13;;;;;;;10.17;5.87;;;-3.00;1.00;;;;;;5091013;28;20171;-83
2024/01/10 01:41:39;;;;;;;10.00;5.87;;;-2.90;1.00;;;;;;5089874;28;20654;-82
2024/01/10 01:44:05;;;;;;;8.53;6.13;;;-2.90;1.00;;;;;;5069796;28;20218;-81
2024/01/10 01:46:32;;;;;;;11.97;6.60;;;-2.90;1.00;;;;;;5071245;28;20165;-82
2024/01/10 01:48:59;;;;;;;6.57;5.07;;;-2.90;1.00;;;;;;5070057;28;20264;-84
2024/01/10 01:51:28;;;;;;;11.50;6.93;;;-2.90;1.00;;;;;;5071181;28;20173;-83
2024/01/10 01:53:54;;;;;;;10.30;6.20;;;-2.90;1.00;;;;;;5071765;28;20187;-84
2024/01/10 01:56:20;;;;;;;12.80;6.97;;;-2.90;1.00;;;;;;5075984;28;20216;-82
2024/01/10 01:58:47;;;;;;;10.73;6.20;;;-2.80;1.00;;;;;;5073996;28;20272;-82
2024/01/10 02:01:14;;;;;;;11.50;6.30;;;-2.90;1.00;;;;;;5074674;28;20234;-84
2024/01/10 02:03:40;;;;;;;11.37;6.77;;;-2.90;1.00;;;;;;5074405;28;20183;-82
2024/01/10 02:06:06;;;;;;;11.97;6.93;;;-2.80;1.00;;;;;;5090456;28;20175;-81
2024/01/10 02:08:33;;;;;;;12.27;6.57;;;-2.90;1.00;;;;;;5093974;28;20641;-82
2024/01/10 02:11:00;;;;;;;11.90;6.40;;;-3.00;1.00;;;;;;5096302;28;20167;-84
2024/01/10 02:13:26;;;;;;;10.83;6.67;;;-3.00;1.00;;;;;;5093548;28;20180;-82
2024/01/10 02:15:52;;;;;;;10.07;6.80;;;-2.90;1.00;;;;;;5094194;28;20565;-83
2024/01/10 02:18:18;;;;;;;10.83;6.03;;;-2.90;1.00;;;;;;5095351;28;20168;-83
2024/01/10 02:20:44;;;;;;;10.13;6.10;;;-2.90;1.00;;;;;;5093995;28;20182;-82
2024/01/10 02:23:10;;;;;;;10.87;7.00;;;-2.80;1.00;;;;;;5094100;28;20176;-83
2024/01/10 02:25:36;;;;;;;12.27;6.77;;;-2.90;1.00;;;;;;5093260;28;20256;-83
2024/01/10 02:28:02;;;;;;;10.17;6.30;;;-2.90;1.00;;;;;;5093988;28;20171;-82
2024/01/10 02:30:28;;;;;;;9.30;6.47;;;-2.90;1.00;;;;;;5092656;28;20658;-84
2024/01/10 02:32:53;;;;;;;9.37;6.40;;;-3.00;1.00;;;;;;5093425;28;20186;-79
2024/01/10 02:35:19;;;;;;;12.90;6.07;;;-3.00;1.00;;;;;;5094710;28;20713;-82
2024/01/10 02:37:45;;;;;;;12.07;6.30;;;-3.00;1.00;;;;;;5080391;28;20202;-81
2024/01/10 02:40:11;;;;;;;10.43;6.20;;;-2.90;1.00;;;;;;5085432;28;20198;-82
2024/01/10 02:42:38;;;;;;;9.07;6.17;;;-2.90;1.00;;;;;;5076097;28;20192;-82
2024/01/10 02:45:05;;;;;;;10.83;6.53;;;-2.90;1.00;;;;;;5073728;28;20179;-84
2024/01/10 02:47:30;;;;;;;9.53;5.97;;;-2.90;1.00;;;;;;5073042;28;20188;-82
2024/01/10 02:49:56;;;;;;;11.40;6.27;;;-3.00;1.00;;;;;;5072701;28;20306;-81
2024/01/10 02:52:21;;;;;;;12.03;7.87;;;-3.10;1.00;;;;;;5073605;28;20539;-84
2024/01/10 02:54:47;;;;;;;9.60;6.00;;;-3.10;1.00;;;;;;5071946;28;20643;-82
2024/01/10 02:57:13;;;;;;;9.63;6.47;;;-3.20;1.00;;;;;;5072633;28;20699;-82
2024/01/10 02:59:39;;;;;;;11.43;6.57;;;-3.10;1.00;;;;;;5071661;28;20172;-84
2024/01/10 03:02:04;;;;;;;12.73;6.13;;;-3.10;1.00;;;;;;5073222;28;20694;-83
2024/01/10 03:04:30;;;;;;;8.43;5.47;;;-3.10;1.00;;;;;;5072635;28;20532;-83
2024/01/10 03:06:56;;;;;;;10.13;6.57;;;-3.20;1.00;;;;;;5071302;28;20648;-83
2024/01/10 03:09:23;;;;;;;13.07;7.37;;;-3.30;1.00;;;;;;5073114;28;20183;-83
2024/01/10 03:11:49;;;;;;;10.80;6.70;;;-3.30;1.00;;;;;;5072731;28;20172;-82
2024/01/10 03:14:14;;;;;;;12.33;6.17;;;-3.30;1.00;;;;;;5073346;28;20247;-84
2024/01/10 03:16:40;;;;;;;7.83;5.57;;;-3.40;1.00;;;;;;5071707;28;20564;-83
2024/01/10 03:19:06;;;;;;;11.70;6.73;;;-3.40;1.00;;;;;;5073027;28;20601;-81
2024/01/10 03:21:31;;;;;;;11.10;6.50;;;-3.40;1.00;;;;;;5072891;28;20168;-83
2024/01/10 03:23:59;;;;;;;10.20;6.63;;;-3.40;1.00;;;;;;5072800;28;20164;-83
2024/01/10 03:26:26;;;;;;;10.97;6.07;;;-3.40;1.00;;;;;;5072498;28;20242;-81
2024/01/10 03:28:52;;;;;;;9.90;6.23;;;-3.40;1.00;;;;;;5072848;28;20175;-83
2024/01/10 03:31:18;;;;;;;11.33;6.47;;;-3.30;1.00;;;;;;5072597;28;20255;-83
2024/01/10 03:33:44;;;;;;;9.60;6.27;;;-3.30;1.00;;;;;;5071983;28;20168;-82
2024/01/10 03:36:15;;;;;;;10.30;7.17;;;-3.40;1.00;;;;;;5091145;28;20227;-81
2024/01/10 03:38:41;;;;;;;12.97;7.20;;;-3.30;1.00;;;;;;5081766;28;20187;-83
2024/01/10 03:41:07;;;;;;;12.07;6.37;;;-3.30;1.00;;;;;;5071633;28;20177;-82
2024/01/10 03:43:32;;;;;;;9.07;5.57;;;-3.40;1.00;;;;;;5091179;28;20179;-83
2024/01/10 03:45:58;;;;;;;11.47;6.67;;;-3.50;1.00;;;;;;5093583;28;20254;-83
2024/01/10 03:48:24;;;;;;;11.60;6.13;;;-3.50;1.00;;;;;;5091927;28;20612;-83
2024/01/10 03:50:50;;;;;;;10.27;6.33;;;-3.60;1.00;;;;;;5071847;28;20253;-82
2024/01/10 03:53:16;;;;;;;9.60;6.63;;;-3.60;1.00;;;;;;5072380;28;20230;-83
2024/01/10 03:55:41;;;;;;;10.20;6.37;;;-3.60;1.00;;;;;;5071295;28;20699;-82
2024/01/10 03:58:07;;;;;;;10.73;6.53;;;-3.50;1.00;;;;;;5070908;28;20207;-83
2024/01/10 04:00:33;;;;;;;10.13;6.53;;;-3.50;1.00;;;;;;5073068;28;20513;-83
2024/01/10 04:02:59;;;;;;;11.50;7.13;;;-3.40;1.00;;;;;;5071024;28;20176;-83
2024/01/10 04:05:25;;;;;;;11.47;6.47;;;-3.40;1.00;;;;;;5071903;28;20293;-83
2024/01/10 04:07:52;;;;;;;11.30;5.93;;;-3.40;1.00;;;;;;5072169;28;20648;-82
2024/01/10 04:10:17;;;;;;;11.40;6.20;;;-3.40;1.00;;;;;;5071799;28;20173;-82
2024/01/10 04:12:44;;;;;;;10.43;6.07;;;-3.40;1.00;;;;;;5079747;28;20670;-83
2024/01/10 04:15:10;;;;;;;11.90;6.40;;;-3.50;1.00;;;;;;5092704;28;20194;-84
2024/01/10 04:17:36;;;;;;;9.97;6.50;;;-3.50;1.00;;;;;;5089810;28;20261;-82
2024/01/10 04:20:02;;;;;;;9.13;5.93;;;-3.50;1.00;;;;;;5090735;28;20254;-82
2024/01/10 04:22:28;;;;;;;10.50;5.83;;;-3.40;1.00;;;;;;5091954;28;20175;-83
2024/01/10 04:24:57;;;;;;;11.10;6.50;;;-3.40;1.00;;;;;;5093657;28;20192;-83
2024/01/10 04:27:22;;;;;;;9.13;6.07;;;-3.60;1.00;;;;;;5092418;28;20652;-84
2024/01/10 04:29:48;;;;;;;9.50;6.47;;;-3.60;1.00;;;;;;5091619;28;20195;-82
2024/01/10 04:32:14;;;;;;;8.93;5.93;;;-3.70;1.00;;;;;;5092903;28;20176;-81
2024/01/10 04:34:40;;;;;;;11.50;7.00;;;-3.70;1.00;;;;;;5093111;28;20179;-85
2024/01/10 04:37:06;;;;;;;10.63;5.93;;;-3.70;1.00;;;;;;5093034;28;20278;-82
2024/01/10 04:39:37;;;;;;;10.60;6.07;;;-3.70;1.00;;;;;;5075233;28;20180;-84
2024/01/10 04:42:04;;;;;;;12.03;6.23;;;-3.70;1.00;;;;;;5072356;28;20179;-84
2024/01/10 04:44:30;;;;;;;11.10;6.27;;;-3.70;1.00;;;;;;5074252;28;20168;-84
2024/01/10 04:46:55;;;;;;;9.00;6.03;;;-3.60;1.00;;;;;;5074594;28;20655;-82
2024/01/10 04:49:21;;;;;;;10.27;6.27;;;-3.70;1.00;;;;;;5075618;28;20168;-82
2024/01/10 04:51:47;;;;;;;7.53;4.67;;;-3.60;1.00;;;;;;5072979;28;20179;-82
2024/01/10 04:54:13;;;;;;;10.80;6.40;;;-3.60;1.00;;;;;;5072185;28;20168;-85
2024/01/10 04:56:39;;;;;;;10.53;6.50;;;-3.70;1.00;;;;;;5070987;28;20215;-83
2024/01/10 04:59:05;;;;;;;11.43;7.43;;;-3.70;1.00;;;;;;5071710;28;20176;-83
2024/01/10 05:01:31;;;;;;;10.30;6.40;;;-3.70;1.00;;;;;;5071241;28;20536;-82
2024/01/10 05:03:57;;;;;;;9.53;6.53;;;-3.70;1.00;;;;;;5072040;28;20633;-83
2024/01/10 05:06:23;;;;;;;12.30;7.07;;;-3.70;1.00;;;;;;5070995;28;20172;-84
2024/01/10 05:08:49;;;;;;;11.80;6.93;;;-3.70;1.00;;;;;;5070690;28;20180;-82
2024/01/10 05:11:15;;;;;;;9.97;6.50;;;-3.80;1.00;;;;;;5070506;28;20666;-81
2024/01/10 05:13:42;;;;;;;10.00;6.40;;;-3.80;1.00;;;;;;5071197;28;20176;-85
2024/01/10 05:16:07;;;;;;;10.13;6.20;;;-3.80;1.00;;;;;;5071288;28;20212;-82
2024/01/10 05:18:33;;;;;;;10.90;6.33;;;-3.80;1.00;;;;;;5071094;28;20174;-84
2024/01/10 05:21:00;;;;;;;9.90;6.43;;;-3.80;1.00;;;;;;5070951;28;20172;-83
2024/01/10 05:23:25;;;;;;;9.27;6.37;;;-3.80;1.00;;;;;;5071353;28;20180;-85
2024/01/10 05:25:51;;;;;;;8.40;5.97;;;-3.80;1.00;;;;;;5073966;28;20269;-84
2024/01/10 05:28:17;;;;;;;9.70;6.30;;;-3.80;1.00;;;;;;5077725;28;20237;-84
2024/01/10 05:30:43;;;;;;;9.87;6.03;;;-3.80;1.00;;;;;;5080481;28;20184;-84
2024/01/10 05:33:10;;;;;;;11.03;6.63;;;-3.90;1.00;;;;;;5075227;28;20180;-81
2024/01/10 05:35:39;;;;;;;11.50;6.20;;;-3.90;1.00;;;;;;5077117;28;20208;-81
2024/01/10 05:38:06;;;;;;;11.13;5.70;;;-3.90;1.00;;;;;;5089059;28;20204;-83
2024/01/10 05:40:32;;;;;;;9.53;4.90;;;-3.90;1.00;;;;;;5074849;28;20183;-87
2024/01/10 05:43:02;;;;;;;11.97;6.70;;;-3.90;1.00;;;;;;5074427;28;20172;-83
2024/01/10 05:45:28;;;;;;;10.43;5.63;;;-3.90;1.00;;;;;;5074234;28;20655;-83
2024/01/10 05:47:54;;;;;;;12.37;6.57;;;-3.90;1.00;;;;;;5074396;28;20172;-82
2024/01/10 05:50:20;;;;;;;8.43;5.70;;;-3.90;1.00;;;;;;5073251;28;20187;-81
2024/01/10 05:52:47;;;;;;;10.50;5.93;;;-3.90;1.00;;;;;;5090348;28;20179;-82
2024/01/10 05:55:12;;;;;;;11.13;6.27;;;-3.90;1.00;;;;;;5094753;28;20202;-83
2024/01/10 05:57:39;;;;;;;11.03;5.30;;;-3.90;1.00;;;;;;5093349;28;20245;-83
2024/01/10 06:00:09;;;;;;;10.37;6.07;;;-3.90;1.00;;;;;;5093805;28;20195;-81
2024/01/10 06:02:39;;;;;;;10.10;6.77;;;-3.80;1.00;;;;;;5094929;28;20275;-83
2024/01/10 06:05:09;;;;;;;11.13;6.87;;;-3.80;1.00;;;;;;5093915;28;20171;-81
2024/01/10 06:07:35;;;;;;;12.87;7.07;;;-3.90;1.00;;;;;;5106379;28;20547;-81
2024/01/10 06:10:01;;;;;;;10.37;7.13;;;-3.80;1.00;;;;;;5073645;28;20184;-82
2024/01/10 06:12:28;;;;;;;9.37;6.07;;;-3.80;1.00;;;;;;5074129;28;20595;-83
2024/01/10 06:14:54;;;;;;;9.57;6.77;;;-3.90;1.00;;;;;;5074165;28;20175;-82
2024/01/10 06:17:20;;;;;;;12.53;6.50;;;-3.80;1.00;;;;;;5073369;28;20216;-83
2024/01/10 06:19:45;;;;;;;11.73;6.23;;;-3.80;1.00;;;;;;5073895;28;20172;-83
2024/01/10 06:22:11;;;;;;;12.00;6.97;;;-3.90;1.00;;;;;;5073820;28;20176;-85
2024/01/10 06:24:43;;;;;;;9.77;6.37;;;-3.90;1.00;;;;;;5073810;28;20596;-84
2024/01/10 06:27:09;;;;;;;10.63;6.23;;;-3.90;1.00;;;;;;5073852;28;20183;-83
2024/01/10 06:29:36;;;;;;;10.63;6.33;;;-3.90;1.00;;;;;;5072440;28;20183;-81
2024/01/10 06:32:03;;;;;;;9.23;6.53;;;-3.90;1.00;;;;;;5073389;28;20266;-82
2024/01/10 06:34:29;;;;;;;12.80;6.97;;;-4.00;1.00;;;;;;5073440;28;20222;-83
2024/01/10 06:36:55;;;;;;;11.07;6.17;;;-3.90;1.00;;;;;;5073370;28;20219;-82
2024/01/10 06:39:21;;;;;;;15.53;6.13;;;-3.90;1.00;;;;;;5082615;28;20187;-82
2024/01/10 06:41:50;;;;;;;11.90;7.73;;;-3.90;1.00;;;;;;5092825;28;20179;-81
2024/01/10 06:44:19;;;;;;;11.67;6.70;;;-3.90;1.00;;;;;;5093475;28;20207;-83
2024/01/10 06:46:45;;;;;;;14.37;6.47;;;-3.90;1.00;;;;;;5092827;28;20234;-83
2024/01/10 06:49:11;;;;;;;12.17;6.50;;;-3.90;1.00;;;;;;5093858;28;20266;-84
2024/01/10 06:51:37;;;;;;;9.13;6.10;;;-4.00;1.00;;;;;;5092247;28;20168;-82
2024/01/10 06:54:04;;;;;;;12.67;7.00;;;-3.90;1.00;;;;;;5091796;28;20176;-85
2024/01/10 06:56:33;;;;;;;10.73;6.23;;;-4.00;1.00;;;;;;5095015;28;20243;-84
2024/01/10 06:59:00;;;;;;;12.30;6.80;;;-4.00;1.00;;;;;;5096469;28;20172;-85
2024/01/10 07:01:27;;;;;;;10.23;6.43;;;-4.00;1.00;;;;;;5093518;28;20173;-81
2024/01/10 07:03:56;;;;;;;9.77;6.43;;;-3.90;1.00;;;;;;5094178;28;20254;-85
2024/01/10 07:06:22;;;;;;;12.77;7.17;;;-3.80;1.00;;;;;;5093157;28;20179;-82
2024/01/10 07:08:49;;;;;;;14.33;6.87;;;-3.90;1.00;;;;;;5092722;28;20184;-80
2024/01/10 07:11:15;;;;;;;12.97;6.80;;;-3.80;1.00;;;;;;5090495;28;20176;-81
2024/01/10 07:13:41;;;;;;;9.87;6.70;;;-3.80;1.00;;;;;;5091710;28;20207;-82
2024/01/10 07:16:08;;;;;;;17.33;7.30;;;-3.80;1.00;;;;;;5092550;28;20203;-80
2024/01/10 07:18:34;;;;;;;12.27;7.03;;;-3.80;1.00;;;;;;5086622;28;20184;-82
2024/01/10 07:20:59;;;;;;;12.00;6.77;;;-3.80;1.00;;;;;;5077473;28;20790;-83
2024/01/10 07:23:26;;;;;;;10.17;6.13;;;-3.80;1.00;;;;;;5083276;28;20593;-81
2024/01/10 07:25:52;;;;;;;11.73;6.53;;;-3.60;1.00;;;;;;5091083;28;20294;-81
2024/01/10 07:28:18;;;;;;;11.70;6.27;;;-3.70;1.00;;;;;;5093077;28;20246;-80
2024/01/10 07:30:44;;;;;;;15.83;6.97;;;-3.70;1.00;;;;;;5092207;28;20176;-81
2024/01/10 07:33:10;;;;;;;13.33;6.63;;;-3.70;1.00;;;;;;5092226;28;20172;-81
2024/01/10 07:35:38;;;;;;;11.80;5.93;;;-3.80;1.00;;;;;;5092705;28;20206;-83
2024/01/10 07:38:10;;;;;;;13.70;7.07;;;-3.80;1.00;;;;;;5088437;28;20545;-82
2024/01/10 07:40:36;;;;;;;10.93;6.47;;;-3.80;1.00;;;;;;5105190;28;20183;-81
2024/01/10 07:43:02;;;;;;;10.03;5.97;;;-3.80;1.00;;;;;;5088077;28;20271;-83
2024/01/10 07:45:27;;;;;;;9.30;5.73;;;-3.80;1.00;;;;;;5076009;28;20179;-80
2024/01/10 07:47:53;;;;;;;12.67;7.77;;;-3.70;1.00;;;;;;5075328;28;20180;-81
2024/01/10 07:50:19;;;;;;;16.03;7.57;;;-3.70;1.00;;;;;;5076364;28;20640;-80
2024/01/10 07:52:48;;;;;;;10.90;6.43;;;-3.60;1.00;;;;;;5080223;28;20286;-81
2024/01/10 07:55:13;;;;;;;19.40;7.73;;;-3.60;1.00;;;;;;5072954;28;20428;-81
2024/01/10 07:57:42;;;;;;;8.83;5.93;;;-3.60;1.00;;;;;;5071623;28;20727;-81
2024/01/10 08:00:11;;;;;;;11.80;6.30;;;-3.50;1.00;;;;;;5077901;28;20183;-81
2024/01/10 08:02:40;;;;;;;13.23;7.10;;;-3.60;1.00;;;;;;5092214;28;20176;-81
2024/01/10 08:05:09;;;;;;;11.23;6.47;;;-3.60;1.00;;;;;;5081649;28;20255;-80
2024/01/10 08:07:38;;;;;;;12.70;6.83;;;-3.60;1.00;;;;;;5071539;28;20180;-80
2024/01/10 08:10:09;;;;;;;9.93;6.50;;;-3.60;1.00;;;;;;5071951;28;20277;-82
2024/01/10 08:12:35;;;;;;;10.80;6.50;;;-3.60;1.00;;;;;;5072018;28;20636;-81
2024/01/10 08:15:01;;;;;;;10.13;6.60;;;-3.60;1.00;;;;;;5071756;28;20245;-81
2024/01/10 08:17:27;;;;;;;9.27;5.63;;;-3.70;1.00;;;;;;5077640;28;20204;-79
2024/01/10 08:19:53;;;;;;;11.73;6.10;;;-3.80;1.00;;;;;;5075373;28;20210;-83
2024/01/10 08:22:19;;;;;;;10.33;6.50;;;-3.80;1.00;;;;;;5078961;28;20165;-81
2024/01/10 08:24:46;;;;;;;8.97;5.63;;;-3.80;1.00;;;;;;5073659;28;20648;-81
2024/01/10 08:27:12;;;;;;;12.47;6.40;;;-3.70;1.00;;;;;;5072786;28;20168;-81
2024/01/10 08:29:37;;;;;;;11.80;6.60;;;-3.70;1.00;;;;;;5074529;28;20632;-81
2024/01/10 08:32:03;;;;;;;12.23;6.70;;;-3.70;1.00;;;;;;5074185;28;20176;-82
2024/01/10 08:34:29;;;;;;;11.40;6.03;;;-3.70;1.00;;;;;;5071733;28;20202;-81
2024/01/10 08:36:55;;;;;;;10.53;6.37;;;-3.70;1.00;;;;;;5072121;28;20235;-82
2024/01/10 08:39:22;;;;;;;8.27;5.50;;;-3.60;1.00;;;;;;5083215;28;20221;-84
2024/01/10 08:41:47;;;;;;;9.47;6.70;;;-3.70;1.00;;;;;;5090498;28;20182;-82
2024/01/10 08:44:13;;;;;;;10.17;6.50;;;-3.70;1.00;;;;;;5089247;28;20529;-82
2024/01/10 08:46:39;;;;;;;11.73;7.00;;;-3.60;1.00;;;;;;5082901;28;20176;-81
2024/01/10 08:49:05;;;;;;;10.23;6.43;;;-3.60;1.00;;;;;;5073304;28;20182;-81
2024/01/10 08:51:30;;;;;;;8.23;5.37;;;-3.60;1.00;;;;;;5075973;28;20185;-80
2024/01/10 08:53:56;;;;;;;10.17;6.43;;;-3.70;1.00;;;;;;5090315;28;20171;-80
2024/01/10 08:56:23;;;;;;;12.33;6.80;;;-3.70;1.00;;;;;;5090310;28;20203;-81
2024/01/10 08:58:49;;;;;;;11.10;6.70;;;-3.70;1.00;;;;;;5089205;28;20581;-81
2024/01/10 09:01:15;;;;;;;10.97;6.70;;;-3.60;1.00;;;;;;5089712;28;20175;-84
2024/01/10 09:03:40;;;;;;;12.33;6.57;;;-3.50;1.00;;;;;;5091728;28;20216;-79
2024/01/10 09:06:09;;;;;;;13.43;7.30;;;-3.40;1.00;;;;;;5095078;28;20232;-81
2024/01/10 09:08:35;;;;;;;12.17;6.43;;;-3.40;1.00;;;;;;5095666;28;20186;-80
2024/01/10 09:11:01;;;;;;;14.37;7.70;;;-3.30;1.00;;;;;;5093698;28;20179;-80
2024/01/10 09:13:27;;;;;;;16.00;7.10;;;-3.30;1.00;;;;;;5092838;28;20175;-80
2024/01/10 09:15:53;;;;;;;12.53;6.73;;;-3.20;1.00;;;;;;5093445;28;20225;-83
2024/01/10 09:18:18;;;;;;;12.47;6.77;;;-3.20;1.00;;;;;;5094819;28;20598;-82
2024/01/10 09:20:44;;;;;;;11.13;7.90;;;-3.20;1.00;;;;;;5096231;28;20203;-83
2024/01/10 09:23:11;;;;;;;10.77;7.23;;;-3.20;1.00;;;;;;5096049;28;20174;-82
2024/01/10 09:25:37;;;;;;;12.00;7.00;;;-3.10;1.00;;;;;;5095105;28;20261;-82
2024/01/10 09:28:04;;;;;;;12.00;7.47;;;-3.00;1.00;;;;;;5093634;28;20294;-82
2024/01/10 09:30:30;;;;;;;12.97;6.87;;;-3.00;1.00;;;;;;5075562;28;20191;-82
2024/01/10 09:32:56;;;;;;;11.20;7.03;;;-3.10;1.00;;;;;;5080830;28;20172;-82
2024/01/10 09:35:22;;;;;;;12.47;6.43;;;-3.00;1.00;;;;;;5096750;28;20179;-83
2024/01/10 09:37:49;;;;;;;9.73;6.00;;;-3.00;1.00;;;;;;5093632;28;20303;-81
2024/01/10 09:40:16;;;;;;;14.27;7.97;;;-3.00;1.00;;;;;;5092049;28;20183;-82
2024/01/10 09:42:46;;;;;;;11.03;7.43;;;-2.90;1.00;;;;;;5082025;28;20269;-82
2024/01/10 09:45:12;;;;;;;12.97;7.67;;;-2.80;1.00;;;;;;5075321;28;20203;-83
2024/01/10 09:47:42;;;;;;;12.47;6.97;;;-2.70;1.00;;;;;;5078915;28;20180;-82
2024/01/10 09:50:10;;;;;;;14.07;7.80;;;-2.70;1.00;;;;;;5085240;28;20187;-82
2024/01/10 09:52:52;;;;;;;15.20;8.40;;;-2.60;1.00;;;;;;5074826;28;20198;-84
2024/01/10 09:55:23;;;;;;;11.67;7.33;;;-2.50;1.00;;;;;;5073940;28;20221;-82
2024/01/10 09:57:49;;;;;;;12.33;7.97;;;-2.50;1.00;;;;;;5076982;28;20202;-78
2024/01/10 10:00:17;;;;;;;15.30;8.63;;;-1.30;1.00;;;;;;5081223;28;20246;-78
2024/01/10 10:02:47;;;;;;;14.23;7.33;;;-0.80;1.00;;;;;;5093365;28;20202;-78
2024/01/10 10:05:17;;;;;;;11.37;8.37;;;-0.30;1.00;;;;;;5088411;28;20179;-80
2024/01/10 10:07:48;;;;;;;15.30;7.90;;;0.20;1.00;;;;;;5092701;28;20211;-80
2024/01/10 10:10:15;;;;;;;15.73;8.03;;;0.00;1.00;;;;;;5093869;28;20192;-79
2024/01/10 10:12:52;;;;;;;11.93;7.60;;;0.30;1.00;;;;;;5092825;28;20180;-78
2024/01/10 10:15:21;;;;;;;11.23;7.53;;;0.40;99.90;;;;;;5093393;28;20271;-77
2024/01/10 10:17:48;;;;;;;11.33;7.40;;;0.50;99.90;;;;;;5092457;28;20208;-79
2024/01/10 10:20:14;;;;;;;12.73;7.90;;;0.60;99.90;;;;;;5087561;28;20181;-80
2024/01/10 10:22:42;;;;;;;15.00;8.73;;;0.00;99.90;;;;;;5103036;28;20206;-83
2024/01/10 10:25:07;;;;;;;13.30;8.43;;;-0.70;99.90;;;;;;5100590;28;20195;-82
2024/01/10 10:27:36;;;;;;;14.30;8.60;;;-1.20;99.90;;;;;;5072798;28;20184;-78
2024/01/10 10:30:03;;;;;;;14.40;7.67;;;-1.20;99.90;;;;;;5072087;28;20593;-80
2024/01/10 10:32:30;;;;;;;14.73;7.77;;;-1.30;99.90;;;;;;5072287;28;20678;-79
2024/01/10 10:34:56;;;;;;;13.23;8.17;;;-1.40;99.90;;;;;;5071956;28;20183;-81
2024/01/10 10:37:22;;;;;;;13.90;8.27;;;-1.30;99.90;;;;;;5073064;28;20294;-79
2024/01/10 10:39:47;;;;;;;11.97;7.73;;;-1.40;99.90;;;;;;5073422;28;20260;-80
2024/01/10 10:42:15;;;;;;;12.63;8.07;;;-1.50;99.90;;;;;;5072778;28;20168;-80
2024/01/10 10:44:44;;;;;;;13.23;7.90;;;-1.50;99.90;;;;;;5075222;28;20255;-81
2024/01/10 10:47:11;;;;;;;16.53;8.77;;;-1.60;99.90;;;;;;5072284;28;20266;-81
2024/01/10 10:49:49;;;;;;;15.70;8.30;;;-1.50;99.90;;;;;;5071046;28;20169;-80
2024/01/10 10:52:16;;;;;;;13.80;7.07;;;-1.40;99.90;;;;;;5082299;28;20182;-82
2024/01/10 10:54:44;;;;;;;14.57;8.10;;;-1.40;99.90;;;;;;5092257;28;20179;-81
2024/01/10 10:57:10;;;;;;;12.57;8.33;;;-1.50;99.90;;;;;;5052048;28;1145640;-82
2024/01/10 10:59:37;;;;;;;12.33;7.30;;;-1.60;99.90;;;;;;5092851;28;20229;-81
2024/01/10 11:02:05;;;;;;;13.27;7.93;;;-1.60;99.90;;;;;;5093952;28;20195;-79
2024/01/10 11:04:34;;;;;;;12.60;8.17;;;-1.50;99.90;;;;;;5092158;28;20218;-79
2024/01/10 11:07:00;;;;;;;12.73;8.03;;;-1.50;1.00;;;;;;5091230;28;20263;-80
2024/01/10 11:09:26;;;;;;;11.73;8.40;;;-1.50;99.90;;;;;;5093773;28;20203;-81
2024/01/10 11:12:27;;;;;;;14.70;8.10;;;-1.50;99.90;;;;;;5092854;28;20270;-80
2024/01/10 11:15:24;;;;;;;15.87;8.67;;;-1.40;1.00;;;;;;5092145;28;20183;-81
2024/01/10 11:18:09;;;;;;;17.17;8.97;;;-1.50;99.90;;;;;;5054566;28;20191;-80
2024/01/10 11:20:56;;;;;;;14.63;8.03;;;-1.50;1.00;;;;;;5092782;28;20857;-80
2024/01/10 11:23:48;;;;;;;14.60;7.73;;;-1.40;1.00;;;;;;5091983;28;20164;-82
2024/01/10 11:26:18;;;;;;;10.13;6.03;;;-1.50;1.00;;;;;;5079712;28;20682;-83
2024/01/10 11:28:44;;;;;;;16.60;7.70;;;-1.60;1.00;;;;;;5089972;28;20544;-80
2024/01/10 11:31:10;;;;;;;10.10;6.97;;;-1.60;1.00;;;;;;5083331;28;20184;-83
2024/01/10 11:33:41;;;;;;;15.20;8.90;;;-1.60;1.00;;;;;;5081199;28;20176;-80
2024/01/10 11:36:10;;;;;;;16.00;8.50;;;-1.50;1.00;;;;;;5072109;28;20303;-80
2024/01/10 11:38:51;;;;;;;12.73;8.30;;;-1.30;1.00;;;;;;5072163;28;20172;-79
2024/01/10 11:41:38;;;;;;;16.33;8.33;;;-1.20;99.90;;;;;;5072093;28;20261;-81
2024/01/10 11:44:13;;;;;;;14.90;8.60;;;-1.10;99.90;;;;;;5073252;28;20631;-82
2024/01/10 11:46:39;;;;;;;13.87;8.17;;;-1.10;99.90;;;;;;5073148;28;20172;-82
2024/01/10 11:49:08;;;;;;;13.70;9.10;;;-1.00;99.90;;;;;;5072257;28;20697;-80
2024/01/10 11:51:38;;;;;;;14.43;9.23;;;-0.90;99.90;;;;;;5073661;28;20194;-80
2024/01/10 11:54:04;;;;;;;13.77;8.70;;;-0.90;99.90;;;;;;5072841;28;20199;-81
2024/01/10 11:56:44;;;;;;;13.60;7.90;;;-0.70;99.90;;;;;;5071427;28;20675;-81
2024/01/10 11:59:11;;;;;;;15.30;7.57;;;-0.70;99.90;;;;;;5078163;28;20178;-80
2024/01/10 12:01:38;;;;;;;14.33;8.60;;;-0.70;99.90;;;;;;5082460;28;20181;-82
2024/01/10 12:04:04;;;;;;;16.23;7.97;;;-0.70;99.90;;;;;;5087115;28;20611;-82
2024/01/10 12:06:31;;;;;;;13.47;8.37;;;-0.60;99.90;;;;;;5071603;28;20164;-82
2024/01/10 12:08:57;;;;;;;13.87;8.83;;;-0.60;99.90;;;;;;5076409;28;20732;-82
2024/01/10 12:11:23;;;;;;;14.03;9.33;;;-0.50;99.90;;;;;;5087227;28;20191;-80
2024/01/10 12:13:49;;;;;;;12.90;8.73;;;-0.50;99.90;;;;;;5088580;28;20175;-84
2024/01/10 12:16:16;;;;;;;14.27;9.47;;;-0.40;99.90;;;;;;5089296;28;20215;-82
2024/01/10 12:18:44;;;;;;;16.17;9.30;;;-0.40;99.90;;;;;;5088666;28;20182;-83
2024/01/10 12:21:12;;;;;;;12.33;8.27;;;-0.30;99.90;;;;;;5087810;28;20194;-82
2024/01/10 12:23:38;;;;;;;13.03;7.83;;;-0.30;99.90;;;;;;5088319;28;20260;-81
2024/01/10 12:26:09;;;;;;;14.20;8.43;;;-0.40;99.90;;;;;;5089432;28;20227;-83
2024/01/10 12:28:35;;;;;;;16.03;9.30;;;-0.30;99.90;;;;;;5093219;28;20284;-82
2024/01/10 12:31:03;;;;;;;13.97;9.07;;;-0.40;99.90;;;;;;5087062;28;20179;-82
2024/01/10 12:33:29;;;;;;;16.27;8.67;;;-0.30;99.90;;;;;;5088107;28;20179;-82
2024/01/10 12:36:10;;;;;;;13.30;8.83;;;-0.30;99.90;;;;;;5087087;28;20616;-81
2024/01/10 12:38:40;;;;;;;15.87;8.30;;;-0.30;99.90;;;;;;5088885;28;20175;-84
2024/01/10 12:41:08;;;;;;;12.67;7.93;;;-0.30;99.90;;;;;;5088287;28;20591;-81
2024/01/10 12:43:35;;;;;;;17.10;9.87;;;-0.20;97.40;;;;;;5089239;28;20175;-82
2024/01/10 12:46:06;;;;;;;15.77;10.13;;;-0.30;99.90;;;;;;5090696;28;20171;-81
2024/01/10 12:48:41;;;;;;;13.90;9.30;;;-0.10;62.70;;;;;;5091437;28;20651;-81